sensor_id;sensor_type;location;lat;lon;timestamp;P1;durP1;ratioP1;P2;durP2;ratioP2
7585;SDS011;12459;42.646;23.292;2023-05-16T00:12:40;13.30;;;12.60;;
7585;SDS011;12459;42.646;23.292;2023-05-16T00:27:42;13.97;;;13.27;;
7585;SDS011;12459;42.646;23.292;2023-05-16T00:42:44;12.67;;;11.97;;
7585;SDS011;12459;42.646;23.292;2023-05-16T00:57:46;13.17;;;12.47;;
7585;SDS011;12459;42.646;23.292;2023-05-16T01:28:07;13.50;;;12.80;;
7585;SDS011;12459;42.646;23.292;2023-05-16T01:43:12;12.77;;;12.07;;
7585;SDS011;12459;42.646;23.292;2023-05-16T01:58:21;13.47;;;12.77;;
7585;SDS011;12459;42.646;23.292;2023-05-16T02:13:26;12.87;;;12.17;;
7585;SDS011;12459;42.646;23.292;2023-05-16T02:28:28;14.33;;;13.63;;
7585;SDS011;12459;42.646;23.292;2023-05-16T02:43:29;13.67;;;12.97;;
7585;SDS011;12459;42.646;23.292;2023-05-16T02:58:31;13.90;;;13.20;;
7585;SDS011;12459;42.646;23.292;2023-05-16T03:13:34;13.53;;;12.83;;
7585;SDS011;12459;42.646;23.292;2023-05-16T03:28:38;14.17;;;13.47;;
7585;SDS011;12459;42.646;23.292;2023-05-16T03:43:39;14.63;;;13.90;;
7585;SDS011;12459;42.646;23.292;2023-05-16T03:58:41;13.67;;;12.97;;
7585;SDS011;12459;42.646;23.292;2023-05-16T04:13:43;13.80;;;13.10;;
7585;SDS011;12459;42.646;23.292;2023-05-16T04:28:45;12.77;;;12.07;;
7585;SDS011;12459;42.646;23.292;2023-05-16T04:43:46;13.80;;;13.10;;
7585;SDS011;12459;42.646;23.292;2023-05-16T04:58:48;13.67;;;12.97;;
7585;SDS011;12459;42.646;23.292;2023-05-16T05:13:50;12.93;;;12.23;;
7585;SDS011;12459;42.646;23.292;2023-05-16T05:28:53;14.10;;;13.40;;
7585;SDS011;12459;42.646;23.292;2023-05-16T05:44:06;14.40;;;13.70;;
7585;SDS011;12459;42.646;23.292;2023-05-16T05:59:07;15.20;;;14.40;;
7585;SDS011;12459;42.646;23.292;2023-05-16T06:14:15;13.43;;;12.73;;
7585;SDS011;12459;42.646;23.292;2023-05-16T06:29:16;16.23;;;15.43;;
7585;SDS011;12459;42.646;23.292;2023-05-16T06:44:18;14.53;;;13.80;;
7585;SDS011;12459;42.646;23.292;2023-05-16T06:59:20;14.23;;;13.53;;
7585;SDS011;12459;42.646;23.292;2023-05-16T07:14:22;15.13;;;14.33;;
7585;SDS011;12459;42.646;23.292;2023-05-16T07:29:23;15.60;;;14.80;;
7585;SDS011;12459;42.646;23.292;2023-05-16T07:44:25;16.20;;;15.40;;
7585;SDS011;12459;42.646;23.292;2023-05-16T07:59:27;17.20;;;16.30;;
7585;SDS011;12459;42.646;23.292;2023-05-16T08:14:30;18.07;;;17.17;;
7585;SDS011;12459;42.646;23.292;2023-05-16T08:29:32;16.63;;;15.83;;
7585;SDS011;12459;42.646;23.292;2023-05-16T08:44:34;17.03;;;16.20;;
7585;SDS011;12459;42.646;23.292;2023-05-16T09:29:39;20.93;;;19.93;;
7585;SDS011;12459;42.646;23.292;2023-05-16T09:44:46;22.47;;;21.37;;
7585;SDS011;12459;42.646;23.292;2023-05-16T09:59:50;20.47;;;19.47;;
7585;SDS011;12459;42.646;23.292;2023-05-16T10:14:51;21.53;;;20.50;;
7585;SDS011;12459;42.646;23.292;2023-05-16T10:29:53;21.77;;;20.70;;
7585;SDS011;12459;42.646;23.292;2023-05-16T10:45:07;22.30;;;21.20;;
7585;SDS011;12459;42.646;23.292;2023-05-16T11:00:22;22.27;;;21.17;;
7585;SDS011;12459;42.646;23.292;2023-05-16T11:15:25;22.07;;;20.97;;
7585;SDS011;12459;42.646;23.292;2023-05-16T11:30:29;21.67;;;20.63;;
7585;SDS011;12459;42.646;23.292;2023-05-16T11:45:30;26.13;;;24.93;;
7585;SDS011;12459;42.646;23.292;2023-05-16T12:00:32;25.57;;;24.37;;
7585;SDS011;12459;42.646;23.292;2023-05-16T12:15:34;23.40;;;22.30;;
7585;SDS011;12459;42.646;23.292;2023-05-16T12:30:38;25.03;;;23.83;;
7585;SDS011;12459;42.646;23.292;2023-05-16T12:45:53;23.97;;;22.83;;
7585;SDS011;12459;42.646;23.292;2023-05-16T13:00:56;25.70;;;24.47;;
7585;SDS011;12459;42.646;23.292;2023-05-16T13:15:58;23.97;;;22.83;;
7585;SDS011;12459;42.646;23.292;2023-05-16T13:31:00;24.73;;;23.53;;
7585;SDS011;12459;42.646;23.292;2023-05-16T13:46:02;24.83;;;23.63;;
7585;SDS011;12459;42.646;23.292;2023-05-16T14:01:04;22.70;;;21.60;;
7585;SDS011;12459;42.646;23.292;2023-05-16T14:16:08;24.47;;;23.27;;
7585;SDS011;12459;42.646;23.292;2023-05-16T14:31:10;22.57;;;21.47;;
7585;SDS011;12459;42.646;23.292;2023-05-16T14:46:12;20.87;;;19.87;;
7585;SDS011;12459;42.646;23.292;2023-05-16T15:01:14;22.07;;;20.97;;
7585;SDS011;12459;42.646;23.292;2023-05-16T15:16:16;22.13;;;21.03;;
7585;SDS011;12459;42.646;23.292;2023-05-16T15:31:18;23.00;;;21.90;;
7585;SDS011;12459;42.646;23.292;2023-05-16T15:46:20;22.97;;;21.87;;
7585;SDS011;12459;42.646;23.292;2023-05-16T16:01:22;22.17;;;21.07;;
7585;SDS011;12459;42.646;23.292;2023-05-16T16:16:23;21.63;;;20.60;;
7585;SDS011;12459;42.646;23.292;2023-05-16T16:31:25;19.87;;;18.87;;
7585;SDS011;12459;42.646;23.292;2023-05-16T16:46:27;18.93;;;18.03;;
7585;SDS011;12459;42.646;23.292;2023-05-16T17:01:29;20.23;;;19.23;;
7585;SDS011;12459;42.646;23.292;2023-05-16T17:16:32;20.03;;;19.03;;
7585;SDS011;12459;42.646;23.292;2023-05-16T17:31:34;18.80;;;17.90;;
7585;SDS011;12459;42.646;23.292;2023-05-16T17:46:51;19.17;;;18.23;;
7585;SDS011;12459;42.646;23.292;2023-05-16T18:01:56;19.70;;;18.70;;
7585;SDS011;12459;42.646;23.292;2023-05-16T18:16:59;17.53;;;16.63;;
7585;SDS011;12459;42.646;23.292;2023-05-16T18:32:00;18.77;;;17.87;;
7585;SDS011;12459;42.646;23.292;2023-05-16T18:47:02;17.80;;;16.90;;
7585;SDS011;12459;42.646;23.292;2023-05-16T19:02:04;16.90;;;16.10;;
7585;SDS011;12459;42.646;23.292;2023-05-16T19:17:06;15.90;;;15.10;;
7585;SDS011;12459;42.646;23.292;2023-05-16T19:32:07;18.23;;;17.33;;
7585;SDS011;12459;42.646;23.292;2023-05-16T19:47:10;20.10;;;19.10;;
7585;SDS011;12459;42.646;23.292;2023-05-16T20:17:16;16.57;;;15.77;;
7585;SDS011;12459;42.646;23.292;2023-05-16T20:47:19;17.10;;;16.23;;
7585;SDS011;12459;42.646;23.292;2023-05-16T21:02:21;17.17;;;16.27;;
7585;SDS011;12459;42.646;23.292;2023-05-16T21:17:23;17.67;;;16.77;;
7585;SDS011;12459;42.646;23.292;2023-05-16T21:32:25;16.40;;;15.60;;
7585;SDS011;12459;42.646;23.292;2023-05-16T21:47:32;16.20;;;15.40;;
7585;SDS011;12459;42.646;23.292;2023-05-16T22:02:35;15.53;;;14.73;;
7585;SDS011;12459;42.646;23.292;2023-05-16T22:17:37;15.80;;;15.00;;
7585;SDS011;12459;42.646;23.292;2023-05-16T22:32:39;15.73;;;14.93;;
7585;SDS011;12459;42.646;23.292;2023-05-16T22:47:41;15.33;;;14.53;;
7585;SDS011;12459;42.646;23.292;2023-05-16T23:02:43;15.30;;;14.50;;
7585;SDS011;12459;42.646;23.292;2023-05-16T23:17:45;14.53;;;13.83;;
